Buoy 44839

sailwx.info

Track history (hours):
 
Tides and Currents Weather Stations Pressure Air Temp Water Temp Dewpoint Dewpoint Depression Visibility Wind Speed Wind Dir Waves Ship Positions

Drifting buoy 44839

Last reported at 2018-Feb-09 14:00 UTC. Time now 2018-Jul-22 10:35 UTC.
Position N 28°47' W 071°27'.
Warning: this ship's position is months out of date.

Barometer 1026.7 mb
Water temperature 23.0 ° C

Date/timePositionNaut miles runAvg speedWind from/ knotsBaromVisibWave heightAir tempDewpointWater temp
2018-Feb-09 14:00N 28°47' W 071°27'1 0.8 1026.7 23.0
2018-Feb-09 13:00N 28°46' W 071°26'0 0.0 1026.1 22.9
2018-Feb-09 12:00N 28°46' W 071°26'1 0.5 1025.3 22.9
2018-Feb-09 11:00N 28°46' W 071°26'0 0.0 1024.8 22.9
2018-Feb-09 10:00N 28°46' W 071°26'1 0.6 1024.2 22.9
2018-Feb-09 09:00N 28°46' W 071°26'0 0.0 1023.9 23.0
2018-Feb-09 08:00N 28°46' W 071°26'1 0.3 1024.2 23.1
2018-Feb-09 06:00N 28°46' W 071°25'0 0.0 1025.1 23.2
2018-Feb-09 05:00N 28°46' W 071°25'1 0.6 1025.3 23.2
2018-Feb-09 04:00N 28°45' W 071°25'1 0.6 1025.8 23.3
2018-Feb-09 03:00N 28°46' W 071°25'0 0.0 1025.8 23.4
2018-Feb-09 02:00N 28°46' W 071°25'0 0.0 1025.7 23.4
2018-Feb-09 01:00N 28°46' W 071°25'1 0.8 1025.4 23.5
2018-Feb-09 00:00N 28°45' W 071°26'1 0.5 1024.9 23.5
2018-Feb-08 23:00N 28°45' W 071°26'1 0.8 1024.7 23.7
2018-Feb-08 22:00N 28°44' W 071°27'0 0.0 1024.1 23.8
2018-Feb-08 21:00N 28°44' W 071°27'1 1.3 1023.8 23.8
2018-Feb-08 20:00N 28°43' W 071°28'1 0.8 1023.6 23.8
2018-Feb-08 19:00N 28°43' W 071°28'1 1.2 1023.9 23.7
2018-Feb-08 18:00N 28°41' W 071°28'1 0.8 1024.2 23.6
2018-Feb-08 17:00N 28°41' W 071°29'1 0.6 1025.1 23.5
2018-Feb-08 16:00N 28°40' W 071°29'1 0.6 1025.9 23.3
2018-Feb-08 15:00N 28°40' W 071°29'1 0.6 1025.9 23.1
2018-Feb-08 14:00N 28°39' W 071°29'1 0.6 1025.5 23.0
2018-Feb-08 13:00N 28°38' W 071°29'1 0.6 1025.3 23.0
2018-Feb-08 12:00N 28°38' W 071°29'1 0.8 1025.0 23.0
2018-Feb-08 11:00N 28°37' W 071°29'1 0.6 1024.7 23.0
2018-Feb-08 10:00N 28°37' W 071°29'1 0.6 1024.5 23.0
2018-Feb-08 09:00N 28°36' W 071°29'1 0.8 1024.2 23.0
2018-Feb-08 08:00N 28°35' W 071°30'1 0.6 1024.7 23.0
2018-Feb-08 07:00N 28°35' W 071°30'1 0.6 1024.7 23.0
2018-Feb-08 06:00N 28°34' W 071°30'1 0.6 1025.3 23.0
2018-Feb-08 05:00N 28°34' W 071°30'1 0.6 1025.6 23.0
2018-Feb-08 04:00N 28°33' W 071°30'1 1.2 1025.6 23.0
2018-Feb-08 03:00N 28°32' W 071°30'1 0.8 1025.4 23.0
2018-Feb-08 02:00N 28°31' W 071°29'1 0.6 1025.3 23.0
2018-Feb-08 01:00N 28°31' W 071°29'0 0.0 1025.2 23.0
2018-Feb-08 00:00N 28°31' W 071°29'1 0.6 1024.6 23.0
2018-Feb-07 23:00N 28°30' W 071°29'1 0.8 1023.9 23.1
2018-Feb-07 22:00N 28°29' W 071°29'1 0.6 1023.8 23.1
2018-Feb-07 21:00N 28°29' W 071°29'1 0.6 1023.7 23.1
2018-Feb-07 20:00N 28°28' W 071°29'1 0.8 1023.7 23.1
2018-Feb-07 19:00N 28°28' W 071°28'1 0.8 1024.0 23.1
2018-Feb-07 18:00N 28°27' W 071°28'1 0.6 1025.0 23.1
2018-Feb-07 17:00N 28°26' W 071°28'1 0.8 1026.5 23.0
2018-Feb-07 16:00N 28°26' W 071°27'1 0.8 1027.5 23.0
2018-Feb-07 15:00N 28°25' W 071°26'2 1.6 1027.8 22.9
2018-Feb-07 14:00N 28°24' W 071°25'1 0.8 1027.5 22.9
2018-Feb-07 13:00N 28°23' W 071°25'1 0.8 1027.0 22.9
2018-Feb-07 12:00N 28°23' W 071°24'1 1.1 1026.6 22.8
2018-Feb-07 11:00N 28°23' W 071°23'1 0.5 1026.5 22.8
2018-Feb-07 10:00N 28°23' W 071°22'1 1.2 1026.3 22.8
2018-Feb-07 09:00N 28°22' W 071°21'1 0.8 1026.1 22.8
2018-Feb-07 08:00N 28°23' W 071°20'1 1.1 1026.2 22.8
2018-Feb-07 07:00N 28°23' W 071°19'1 0.5 1026.7 22.8
2018-Feb-07 06:00N 28°23' W 071°19'1 0.8 1027.2 22.8
2018-Feb-07 05:00N 28°23' W 071°18'1 0.6 1027.5 22.7
2018-Feb-07 04:00N 28°24' W 071°18'1 0.8 1027.7 22.7
2018-Feb-07 03:00N 28°25' W 071°17'1 1.2 1027.7 22.6
2018-Feb-07 02:00N 28°26' W 071°17'1 0.6 1027.4 22.6
2018-Feb-07 01:00N 28°26' W 071°17'1 1.2 1027.4 22.5
2018-Feb-07 00:00N 28°28' W 071°17'1 0.6 1027.2 22.4
2018-Feb-06 23:00N 28°28' W 071°17'1 0.8 1026.7 22.4
2018-Feb-06 22:00N 28°29' W 071°18'1 0.8 1026.0 22.3
2018-Feb-06 21:00N 28°29' W 071°19'0 0.0 1025.6 22.2
2018-Feb-06 20:00N 28°29' W 071°19'1 0.3 1024.7 22.2
2018-Feb-06 18:00N 28°30' W 071°19'0 0.0 1025.6 22.1
2018-Feb-06 17:00N 28°30' W 071°19'0 0.0 1026.3 22.0
2018-Feb-06 16:00N 28°30' W 071°19'0 0.0 1027.1 21.9
2018-Feb-06 15:00N 28°30' W 071°19'1 0.6 1027.1 21.8
2018-Feb-06 14:00N 28°31' W 071°19'0 0.0 1026.7 21.8
2018-Feb-06 13:00N 28°31' W 071°19'0 0.0 1025.8 21.8
2018-Feb-06 12:00N 28°31' W 071°19'1 0.6
2018-Feb-06 11:00N 28°31' W 071°19'0 0.0
2018-Feb-06 10:00N 28°31' W 071°19'0 0.0
2018-Feb-06 09:00N 28°31' W 071°19'0 0.0 1022.9 21.8
2018-Feb-06 08:00N 28°31' W 071°19'0 0.0 1022.7 21.8
2018-Feb-06 07:00N 28°31' W 071°19'1 0.6 1022.8 21.8
2018-Feb-06 06:00N 28°32' W 071°19'0 0.0 1022.7 21.8
2018-Feb-06 05:00N 28°32' W 071°19'0 0.0 1022.6 21.8
2018-Feb-06 04:00N 28°32' W 071°19'1 0.8 1022.7 21.9
2018-Feb-06 03:00N 28°32' W 071°18'0 0.0 1022.5 21.9
2018-Feb-06 02:00N 28°32' W 071°18'0 0.0 1022.3 21.9
2018-Feb-06 01:00N 28°32' W 071°18'1 0.5 1021.8 22.0
2018-Feb-06 00:00N 28°32' W 071°17'0 0.0 1021.0 22.0
2018-Feb-05 23:00N 28°32' W 071°17'0 0.0 1020.3 22.0
2018-Feb-05 22:00N 28°32' W 071°17'1 0.5 1019.9 22.0
2018-Feb-05 21:00N 28°32' W 071°18'1 0.6 1019.4 21.9
2018-Feb-05 19:00N 28°32' W 071°19'1 0.5 1018.9 21.9
2018-Feb-05 18:00N 28°32' W 071°20'1 0.8
2018-Feb-05 17:00N 28°31' W 071°20'1 0.8
2018-Feb-05 16:00N 28°31' W 071°21'1 0.8
2018-Feb-05 15:00N 28°30' W 071°22'3 2.6 1019.2 23.0
2018-Feb-05 14:00N 28°30' W 071°19'1 1.1 1018.6 23.0
2018-Feb-05 13:00N 28°30' W 071°17'3 3.4 1018.4 22.7
2018-Feb-05 12:00N 28°31' W 071°14'   1018.2 22.5
Track history (hours):
 
Tides and Currents Weather Stations Pressure Air Temp Water Temp Dewpoint Dewpoint Depression Visibility Wind Speed Wind Dir Waves Ship Positions

Drifting buoy 44839

Last reported at 2018-Feb-09 14:00 UTC. Time now 2018-Jul-22 10:35 UTC.
Position N 28°47' W 071°27'.
Warning: this ship's position is months out of date.

Barometer 1026.7 mb
Water temperature 23.0 ° C

Date/timePositionNaut miles runAvg speedWind from/ knotsBaromVisibWave heightAir tempDewpointWater temp
2018-Feb-09 14:00N 28°47' W 071°27'1 0.8 1026.7 23.0
2018-Feb-09 13:00N 28°46' W 071°26'0 0.0 1026.1 22.9
2018-Feb-09 12:00N 28°46' W 071°26'1 0.5 1025.3 22.9
2018-Feb-09 11:00N 28°46' W 071°26'0 0.0 1024.8 22.9
2018-Feb-09 10:00N 28°46' W 071°26'1 0.6 1024.2 22.9
2018-Feb-09 09:00N 28°46' W 071°26'0 0.0 1023.9 23.0
2018-Feb-09 08:00N 28°46' W 071°26'1 0.3 1024.2 23.1
2018-Feb-09 06:00N 28°46' W 071°25'0 0.0 1025.1 23.2
2018-Feb-09 05:00N 28°46' W 071°25'1 0.6 1025.3 23.2
2018-Feb-09 04:00N 28°45' W 071°25'1 0.6 1025.8 23.3
2018-Feb-09 03:00N 28°46' W 071°25'0 0.0 1025.8 23.4
2018-Feb-09 02:00N 28°46' W 071°25'0 0.0 1025.7 23.4
2018-Feb-09 01:00N 28°46' W 071°25'1 0.8 1025.4 23.5
2018-Feb-09 00:00N 28°45' W 071°26'1 0.5 1024.9 23.5
2018-Feb-08 23:00N 28°45' W 071°26'1 0.8 1024.7 23.7
2018-Feb-08 22:00N 28°44' W 071°27'0 0.0 1024.1 23.8
2018-Feb-08 21:00N 28°44' W 071°27'1 1.3 1023.8 23.8
2018-Feb-08 20:00N 28°43' W 071°28'1 0.8 1023.6 23.8
2018-Feb-08 19:00N 28°43' W 071°28'1 1.2 1023.9 23.7
2018-Feb-08 18:00N 28°41' W 071°28'1 0.8 1024.2 23.6
2018-Feb-08 17:00N 28°41' W 071°29'1 0.6 1025.1 23.5
2018-Feb-08 16:00N 28°40' W 071°29'1 0.6 1025.9 23.3
2018-Feb-08 15:00N 28°40' W 071°29'1 0.6 1025.9 23.1
2018-Feb-08 14:00N 28°39' W 071°29'1 0.6 1025.5 23.0
2018-Feb-08 13:00N 28°38' W 071°29'1 0.6 1025.3 23.0
2018-Feb-08 12:00N 28°38' W 071°29'1 0.8 1025.0 23.0
2018-Feb-08 11:00N 28°37' W 071°29'1 0.6 1024.7 23.0
2018-Feb-08 10:00N 28°37' W 071°29'1 0.6 1024.5 23.0
2018-Feb-08 09:00N 28°36' W 071°29'1 0.8 1024.2 23.0
2018-Feb-08 08:00N 28°35' W 071°30'1 0.6 1024.7 23.0
2018-Feb-08 07:00N 28°35' W 071°30'1 0.6 1024.7 23.0
2018-Feb-08 06:00N 28°34' W 071°30'1 0.6 1025.3 23.0
2018-Feb-08 05:00N 28°34' W 071°30'1 0.6 1025.6 23.0
2018-Feb-08 04:00N 28°33' W 071°30'1 1.2 1025.6 23.0
2018-Feb-08 03:00N 28°32' W 071°30'1 0.8 1025.4 23.0
2018-Feb-08 02:00N 28°31' W 071°29'1 0.6 1025.3 23.0
2018-Feb-08 01:00N 28°31' W 071°29'0 0.0 1025.2 23.0
2018-Feb-08 00:00N 28°31' W 071°29'1 0.6 1024.6 23.0
2018-Feb-07 23:00N 28°30' W 071°29'1 0.8 1023.9 23.1
2018-Feb-07 22:00N 28°29' W 071°29'1 0.6 1023.8 23.1
2018-Feb-07 21:00N 28°29' W 071°29'1 0.6 1023.7 23.1
2018-Feb-07 20:00N 28°28' W 071°29'1 0.8 1023.7 23.1
2018-Feb-07 19:00N 28°28' W 071°28'1 0.8 1024.0 23.1
2018-Feb-07 18:00N 28°27' W 071°28'1 0.6 1025.0 23.1
2018-Feb-07 17:00N 28°26' W 071°28'1 0.8 1026.5 23.0
2018-Feb-07 16:00N 28°26' W 071°27'1 0.8 1027.5 23.0
2018-Feb-07 15:00N 28°25' W 071°26'2 1.6 1027.8 22.9
2018-Feb-07 14:00N 28°24' W 071°25'1 0.8 1027.5 22.9
2018-Feb-07 13:00N 28°23' W 071°25'1 0.8 1027.0 22.9
2018-Feb-07 12:00N 28°23' W 071°24'1 1.1 1026.6 22.8
2018-Feb-07 11:00N 28°23' W 071°23'1 0.5 1026.5 22.8
2018-Feb-07 10:00N 28°23' W 071°22'1 1.2 1026.3 22.8
2018-Feb-07 09:00N 28°22' W 071°21'1 0.8 1026.1 22.8
2018-Feb-07 08:00N 28°23' W 071°20'1 1.1 1026.2 22.8
2018-Feb-07 07:00N 28°23' W 071°19'1 0.5 1026.7 22.8
2018-Feb-07 06:00N 28°23' W 071°19'1 0.8 1027.2 22.8
2018-Feb-07 05:00N 28°23' W 071°18'1 0.6 1027.5 22.7
2018-Feb-07 04:00N 28°24' W 071°18'1 0.8 1027.7 22.7
2018-Feb-07 03:00N 28°25' W 071°17'1 1.2 1027.7 22.6
2018-Feb-07 02:00N 28°26' W 071°17'1 0.6 1027.4 22.6
2018-Feb-07 01:00N 28°26' W 071°17'1 1.2 1027.4 22.5
2018-Feb-07 00:00N 28°28' W 071°17'1 0.6 1027.2 22.4
2018-Feb-06 23:00N 28°28' W 071°17'1 0.8 1026.7 22.4
2018-Feb-06 22:00N 28°29' W 071°18'1 0.8 1026.0 22.3
2018-Feb-06 21:00N 28°29' W 071°19'0 0.0 1025.6 22.2
2018-Feb-06 20:00N 28°29' W 071°19'1 0.3 1024.7 22.2
2018-Feb-06 18:00N 28°30' W 071°19'0 0.0 1025.6 22.1
2018-Feb-06 17:00N 28°30' W 071°19'0 0.0 1026.3 22.0
2018-Feb-06 16:00N 28°30' W 071°19'0 0.0 1027.1 21.9
2018-Feb-06 15:00N 28°30' W 071°19'1 0.6 1027.1 21.8
2018-Feb-06 14:00N 28°31' W 071°19'0 0.0 1026.7 21.8
2018-Feb-06 13:00N 28°31' W 071°19'0 0.0 1025.8 21.8
2018-Feb-06 12:00N 28°31' W 071°19'1 0.6
2018-Feb-06 11:00N 28°31' W 071°19'0 0.0
2018-Feb-06 10:00N 28°31' W 071°19'0 0.0
2018-Feb-06 09:00N 28°31' W 071°19'0 0.0 1022.9 21.8
2018-Feb-06 08:00N 28°31' W 071°19'0 0.0 1022.7 21.8
2018-Feb-06 07:00N 28°31' W 071°19'1 0.6 1022.8 21.8
2018-Feb-06 06:00N 28°32' W 071°19'0 0.0 1022.7 21.8
2018-Feb-06 05:00N 28°32' W 071°19'0 0.0 1022.6 21.8
2018-Feb-06 04:00N 28°32' W 071°19'1 0.8 1022.7 21.9
2018-Feb-06 03:00N 28°32' W 071°18'0 0.0 1022.5 21.9
2018-Feb-06 02:00N 28°32' W 071°18'0 0.0 1022.3 21.9
2018-Feb-06 01:00N 28°32' W 071°18'1 0.5 1021.8 22.0
2018-Feb-06 00:00N 28°32' W 071°17'0 0.0 1021.0 22.0
2018-Feb-05 23:00N 28°32' W 071°17'0 0.0 1020.3 22.0
2018-Feb-05 22:00N 28°32' W 071°17'1 0.5 1019.9 22.0
2018-Feb-05 21:00N 28°32' W 071°18'1 0.6 1019.4 21.9
2018-Feb-05 19:00N 28°32' W 071°19'1 0.5 1018.9 21.9
2018-Feb-05 18:00N 28°32' W 071°20'1 0.8
2018-Feb-05 17:00N 28°31' W 071°20'1 0.8
2018-Feb-05 16:00N 28°31' W 071°21'1 0.8
2018-Feb-05 15:00N 28°30' W 071°22'3 2.6 1019.2 23.0
2018-Feb-05 14:00N 28°30' W 071°19'1 1.1 1018.6 23.0
2018-Feb-05 13:00N 28°30' W 071°17'3 3.4 1018.4 22.7
2018-Feb-05 12:00N 28°31' W 071°14'   1018.2 22.5

Dump ship's entire track history